Time;durP1;ratioP1;P1;durP2;ratioP2;P2;SDS_P1;SDS_P2;PMS_P1;PMS_P2;Temp;Humidity;BMP_temperature;BMP_pressure;BME280_temperature;BME280_humidity;BME280_pressure;Samples;Min_cycle;Max_cycle;Signal;HPM_P1;HPM_P2
2023/08/29 00:01:50;;;;;;;11.90;6.33;;;11.90;99.90;;;;;;5113832;28;20216;-51
2023/08/29 00:04:15;;;;;;;12.93;6.90;;;11.90;99.90;;;;;;5114409;28;20241;-51
2023/08/29 00:06:41;;;;;;;13.27;6.87;;;11.90;99.90;;;;;;5113784;28;20179;-52
2023/08/29 00:09:07;;;;;;;10.33;6.67;;;11.80;99.90;;;;;;5113907;28;20226;-50
2023/08/29 00:11:33;;;;;;;8.47;6.57;;;11.80;99.90;;;;;;5113529;28;20192;-52
2023/08/29 00:13:59;;;;;;;8.77;6.40;;;11.80;99.90;;;;;;5113925;28;20192;-52
2023/08/29 00:16:24;;;;;;;9.23;6.30;;;11.70;99.90;;;;;;5113739;28;20180;-53
2023/08/29 00:18:50;;;;;;;7.07;6.37;;;11.70;99.90;;;;;;5113351;28;20766;-52
2023/08/29 00:21:16;;;;;;;7.60;6.57;;;11.70;99.90;;;;;;5113691;28;20209;-52
2023/08/29 00:23:41;;;;;;;9.30;6.60;;;11.70;99.90;;;;;;5113381;28;20584;-51
2023/08/29 00:26:07;;;;;;;8.23;5.70;;;11.60;99.90;;;;;;5113318;28;20184;-52
2023/08/29 00:28:32;;;;;;;8.73;7.30;;;11.60;99.90;;;;;;5113620;28;20171;-52
2023/08/29 00:30:58;;;;;;;8.43;5.83;;;11.60;99.90;;;;;;5113175;28;20191;-52
2023/08/29 00:33:24;;;;;;;10.23;7.07;;;11.50;99.90;;;;;;5113118;28;20190;-53
2023/08/29 00:35:49;;;;;;;12.03;6.60;;;11.50;99.90;;;;;;5113239;28;20194;-52
2023/08/29 00:38:15;;;;;;;10.63;7.17;;;11.50;99.90;;;;;;5113731;28;20585;-52
2023/08/29 00:40:41;;;;;;;9.73;7.30;;;11.50;99.90;;;;;;5112925;28;20283;-52
2023/08/29 00:43:06;;;;;;;10.63;7.13;;;11.50;99.90;;;;;;5113158;28;20183;-52
2023/08/29 00:45:35;;;;;;;9.73;6.80;;;11.40;99.90;;;;;;5112945;28;20181;-52
2023/08/29 00:48:01;;;;;;;10.10;6.10;;;11.40;99.90;;;;;;5113046;28;20168;-52
2023/08/29 00:50:27;;;;;;;7.87;7.00;;;11.40;99.90;;;;;;5113178;28;20453;-53
2023/08/29 00:52:58;;;;;;;8.50;7.50;;;11.40;99.90;;;;;;5112976;28;20422;-51
2023/08/29 00:55:25;;;;;;;10.17;6.90;;;11.40;99.90;;;;;;5113253;28;20746;-52
2023/08/29 00:57:55;;;;;;;7.83;7.03;;;11.30;99.90;;;;;;5113115;28;20418;-51
2023/08/29 01:00:23;;;;;;;7.37;6.57;;;11.30;99.90;;;;;;5113156;28;20423;-52
2023/08/29 01:02:49;;;;;;;10.07;6.93;;;11.30;99.90;;;;;;5112772;28;20466;-52
2023/08/29 01:05:15;;;;;;;10.20;7.20;;;11.30;99.90;;;;;;5113028;28;20420;-51
2023/08/29 01:07:40;;;;;;;12.20;7.00;;;11.30;99.90;;;;;;5112655;28;20271;-52
2023/08/29 01:10:06;;;;;;;10.47;7.77;;;11.30;99.90;;;;;;5112880;28;20183;-52
2023/08/29 01:12:57;;;;;;;8.50;7.50;;;11.20;99.90;;;;;;5112723;28;20187;-52
2023/08/29 01:15:29;;;;;;;8.87;7.03;;;11.20;99.90;;;;;;5112927;28;20416;-52
2023/08/29 01:18:00;;;;;;;9.30;7.53;;;11.20;99.90;;;;;;5112585;28;20451;-52
2023/08/29 01:20:28;;;;;;;8.80;7.90;;;11.20;99.90;;;;;;5112870;28;20402;-51
2023/08/29 01:23:12;;;;;;;7.90;6.80;;;11.20;99.90;;;;;;5112383;28;20492;-52
2023/08/29 01:25:47;;;;;;;8.00;7.00;;;11.20;99.90;;;;;;5112606;28;20398;-52
2023/08/29 01:28:13;;;;;;;7.40;6.27;;;11.20;99.90;;;;;;5112849;28;20406;-51
2023/08/29 01:30:40;;;;;;;9.77;6.40;;;11.10;99.90;;;;;;5112407;28;20961;-51
2023/08/29 01:33:07;;;;;;;7.60;6.80;;;11.10;99.90;;;;;;5112260;28;20643;-52
2023/08/29 01:35:33;;;;;;;10.87;7.00;;;11.00;99.90;;;;;;5112611;28;20406;-52
2023/08/29 01:37:58;;;;;;;9.20;6.30;;;11.00;99.90;;;;;;5112402;28;20558;-51
2023/08/29 01:40:24;;;;;;;9.00;7.53;;;11.00;99.90;;;;;;5112312;28;20181;-51
2023/08/29 01:42:50;;;;;;;8.60;7.03;;;10.90;99.90;;;;;;5112370;28;20722;-51
2023/08/29 01:45:15;;;;;;;8.63;6.70;;;10.80;99.90;;;;;;5112745;28;20182;-50
2023/08/29 01:47:42;;;;;;;12.63;7.97;;;10.80;99.90;;;;;;5112297;28;20175;-51
2023/08/29 01:50:09;;;;;;;11.37;8.03;;;10.80;99.90;;;;;;5112137;28;20548;-50
2023/08/29 01:52:35;;;;;;;12.47;8.10;;;10.80;99.90;;;;;;5112125;28;20433;-51
2023/08/29 01:55:01;;;;;;;7.20;6.50;;;10.80;99.90;;;;;;5112370;28;20490;-51
2023/08/29 01:57:28;;;;;;;10.27;8.17;;;10.80;99.90;;;;;;5112098;28;20847;-51
2023/08/29 01:59:55;;;;;;;9.87;7.40;;;10.80;99.90;;;;;;5112155;28;20415;-50
2023/08/29 02:02:21;;;;;;;8.77;7.87;;;10.80;99.90;;;;;;5111902;28;20532;-51
2023/08/29 02:04:47;;;;;;;10.43;7.77;;;10.80;99.90;;;;;;5112482;28;20407;-50
2023/08/29 02:07:12;;;;;;;13.13;9.20;;;10.80;99.90;;;;;;5111972;28;20986;-50
2023/08/29 02:09:38;;;;;;;13.77;9.20;;;10.80;99.90;;;;;;5112185;28;20258;-50
2023/08/29 02:12:04;;;;;;;13.83;9.47;;;10.80;99.90;;;;;;5111967;28;20182;-51
2023/08/29 02:14:29;;;;;;;12.63;9.90;;;10.80;99.90;;;;;;5112188;28;20240;-50
2023/08/29 02:16:55;;;;;;;14.67;10.50;;;10.80;99.90;;;;;;5111817;28;20175;-49
2023/08/29 02:19:20;;;;;;;11.80;9.10;;;10.80;99.90;;;;;;5111886;28;20180;-51
2023/08/29 02:21:46;;;;;;;12.00;8.73;;;10.80;99.90;;;;;;5112077;28;20715;-50
2023/08/29 02:24:12;;;;;;;11.70;8.73;;;10.80;99.90;;;;;;5112128;28;20533;-50
2023/08/29 02:26:37;;;;;;;10.90;9.20;;;10.80;99.90;;;;;;5112409;28;20177;-50
2023/08/29 02:29:03;;;;;;;9.70;8.07;;;10.80;99.90;;;;;;5112797;28;20668;-50
2023/08/29 02:31:28;;;;;;;11.10;8.27;;;10.70;99.90;;;;;;5115927;28;20198;-50
2023/08/29 02:33:54;;;;;;;8.17;7.37;;;10.70;99.90;;;;;;5115690;28;20212;-50
2023/08/29 02:36:19;;;;;;;11.30;8.87;;;10.70;99.90;;;;;;5115707;28;20201;-50
2023/08/29 02:38:45;;;;;;;13.30;8.23;;;10.60;99.90;;;;;;5115798;28;20187;-50
2023/08/29 02:41:11;;;;;;;13.33;9.40;;;10.60;99.90;;;;;;5115550;28;20203;-50
2023/08/29 02:43:37;;;;;;;13.50;8.90;;;10.50;99.90;;;;;;5115694;28;20273;-50
2023/08/29 02:46:03;;;;;;;9.53;8.53;;;10.50;99.90;;;;;;5115419;28;20416;-50
2023/08/29 02:48:29;;;;;;;9.60;8.33;;;10.50;99.90;;;;;;5115328;28;20420;-50
2023/08/29 02:50:54;;;;;;;8.43;7.60;;;10.50;99.90;;;;;;5115134;28;20251;-50
2023/08/29 02:53:21;;;;;;;11.00;8.60;;;10.50;99.90;;;;;;5115322;28;20183;-55
2023/08/29 02:55:51;;;;;;;13.00;9.37;;;10.50;99.90;;;;;;5115771;28;20195;-51
2023/08/29 02:58:16;;;;;;;16.70;9.10;;;10.50;99.90;;;;;;5115270;28;21001;-50
2023/08/29 03:00:42;;;;;;;10.13;8.00;;;10.50;99.90;;;;;;5114942;28;20428;-51
2023/08/29 03:03:09;;;;;;;12.90;8.70;;;10.50;99.90;;;;;;5115121;28;20180;-51
2023/08/29 03:05:34;;;;;;;11.60;9.23;;;10.50;99.90;;;;;;5115051;28;20194;-51
2023/08/29 03:08:03;;;;;;;14.60;9.13;;;10.50;99.90;;;;;;5115180;28;20420;-50
2023/08/29 03:10:28;;;;;;;10.23;8.73;;;10.40;99.90;;;;;;5114969;28;20195;-51
2023/08/29 03:12:54;;;;;;;11.60;8.60;;;10.40;99.90;;;;;;5115129;28;20420;-51
2023/08/29 03:15:20;;;;;;;11.63;9.33;;;10.40;99.90;;;;;;5115299;28;20183;-50
2023/08/29 03:17:46;;;;;;;12.50;9.23;;;10.40;99.90;;;;;;5115168;28;20769;-50
2023/08/29 03:20:12;;;;;;;14.43;9.77;;;10.40;99.90;;;;;;5114956;28;20183;-50
2023/08/29 03:22:37;;;;;;;10.87;9.20;;;10.40;99.90;;;;;;5114315;28;20726;-51
2023/08/29 03:25:05;;;;;;;10.90;9.10;;;10.40;99.90;;;;;;5114805;28;20411;-50
2023/08/29 03:27:30;;;;;;;11.87;9.83;;;10.40;99.90;;;;;;5114799;28;20221;-50
2023/08/29 03:29:56;;;;;;;10.27;8.60;;;10.40;99.90;;;;;;5114568;28;20453;-51
2023/08/29 03:32:22;;;;;;;15.37;9.27;;;10.40;99.90;;;;;;5114825;28;20240;-51
2023/08/29 03:34:52;;;;;;;9.00;7.67;;;10.40;99.90;;;;;;5115606;28;20182;-50
2023/08/29 03:37:18;;;;;;;13.37;9.30;;;10.40;99.90;;;;;;5114901;28;20515;-49
2023/08/29 03:39:44;;;;;;;9.67;8.60;;;10.30;99.90;;;;;;5114218;28;20442;-50
2023/08/29 03:42:09;;;;;;;12.40;9.47;;;10.30;99.90;;;;;;5114420;28;20240;-51
2023/08/29 03:44:35;;;;;;;9.83;8.33;;;10.30;99.90;;;;;;5114618;28;20661;-50
2023/08/29 03:47:00;;;;;;;12.80;9.00;;;10.40;99.90;;;;;;5114848;28;20641;-50
2023/08/29 03:49:26;;;;;;;10.17;7.70;;;10.40;99.90;;;;;;5114621;28;20266;-50
2023/08/29 03:51:52;;;;;;;14.10;8.90;;;10.40;99.90;;;;;;5114193;28;20178;-51
2023/08/29 03:54:17;;;;;;;9.47;8.47;;;10.40;99.90;;;;;;5114192;28;20539;-50
2023/08/29 03:56:43;;;;;;;11.10;8.50;;;10.40;99.90;;;;;;5113915;28;20668;-50
2023/08/29 03:59:09;;;;;;;12.10;9.63;;;10.40;99.90;;;;;;5114107;28;20282;-50
2023/08/29 04:01:35;;;;;;;12.17;9.43;;;10.40;99.90;;;;;;5113970;28;20211;-51
2023/08/29 04:04:02;;;;;;;13.80;10.10;;;10.40;99.90;;;;;;5113810;28;20650;-51
2023/08/29 04:06:28;;;;;;;12.43;10.03;;;10.40;99.90;;;;;;5113939;28;20179;-50
2023/08/29 04:08:54;;;;;;;14.37;10.73;;;10.40;99.90;;;;;;5113712;28;20418;-51
2023/08/29 04:11:20;;;;;;;16.57;10.87;;;10.40;99.90;;;;;;5114091;28;20192;-51
2023/08/29 04:13:45;;;;;;;12.33;10.30;;;10.40;99.90;;;;;;5113552;28;20412;-51
2023/08/29 04:16:11;;;;;;;16.20;9.90;;;10.40;99.90;;;;;;5113555;28;20275;-51
2023/08/29 04:18:36;;;;;;;13.83;9.53;;;10.40;99.90;;;;;;5113860;28;20582;-50
2023/08/29 04:21:02;;;;;;;12.83;10.50;;;10.50;99.90;;;;;;5113744;28;20211;-50
2023/08/29 04:23:28;;;;;;;14.10;10.20;;;10.50;99.90;;;;;;5113297;28;20604;-50
2023/08/29 04:25:59;;;;;;;16.37;11.20;;;10.60;99.90;;;;;;5113495;28;20215;-51
2023/08/29 04:28:25;;;;;;;14.53;10.80;;;10.60;99.90;;;;;;5113725;28;20183;-51
2023/08/29 04:30:50;;;;;;;13.87;9.43;;;10.60;99.90;;;;;;5113898;28;20413;-51
2023/08/29 04:33:16;;;;;;;11.50;10.13;;;10.60;99.90;;;;;;5113451;28;20652;-50
2023/08/29 04:35:42;;;;;;;13.53;9.73;;;10.60;99.90;;;;;;5113674;28;20191;-50
2023/08/29 04:38:07;;;;;;;15.33;10.60;;;10.60;99.90;;;;;;5113663;28;20179;-51
2023/08/29 04:40:35;;;;;;;11.43;10.20;;;10.60;99.90;;;;;;5113245;28;20772;-50
2023/08/29 04:43:00;;;;;;;11.57;8.97;;;10.60;99.90;;;;;;5113321;28;20219;-50
2023/08/29 04:45:26;;;;;;;13.07;9.90;;;10.60;99.90;;;;;;5113477;28;20413;-51
2023/08/29 04:47:51;;;;;;;11.10;9.10;;;10.60;99.90;;;;;;5113496;28;20174;-51
2023/08/29 04:50:17;;;;;;;20.33;12.20;;;10.60;99.90;;;;;;5113248;28;20229;-50
2023/08/29 04:52:43;;;;;;;17.17;11.77;;;10.60;99.90;;;;;;5112588;28;20186;-51
2023/08/29 04:55:09;;;;;;;18.13;12.80;;;10.70;99.90;;;;;;5113113;28;20412;-50
2023/08/29 04:57:34;;;;;;;12.97;10.90;;;10.70;99.90;;;;;;5112994;28;20527;-51
2023/08/29 05:00:00;;;;;;;14.87;11.10;;;10.80;99.90;;;;;;5113040;28;20199;-51
2023/08/29 05:02:26;;;;;;;17.60;12.20;;;10.80;99.90;;;;;;5112724;28;20212;-51
2023/08/29 05:04:52;;;;;;;16.70;12.47;;;10.90;99.90;;;;;;5113305;28;20187;-51
2023/08/29 05:07:18;;;;;;;17.47;13.10;;;10.90;99.90;;;;;;5112839;28;20772;-50
2023/08/29 05:09:44;;;;;;;25.10;14.27;;;11.00;99.90;;;;;;5112535;28;20421;-53
2023/08/29 05:12:10;;;;;;;20.07;13.53;;;11.10;99.90;;;;;;5112779;28;20427;-50
2023/08/29 05:14:38;;;;;;;27.33;13.30;;;11.10;99.90;;;;;;5112711;28;20264;-51
2023/08/29 05:17:04;;;;;;;21.67;14.23;;;11.10;99.90;;;;;;5112806;28;20409;-50
2023/08/29 05:19:29;;;;;;;23.83;15.17;;;11.20;99.90;;;;;;5094496;28;20894;-50
2023/08/29 05:21:55;;;;;;;20.67;14.87;;;11.20;99.90;;;;;;5112193;28;20305;-51
2023/08/29 05:24:20;;;;;;;24.40;16.70;;;11.30;99.90;;;;;;5112957;28;20180;-50
2023/08/29 05:26:47;;;;;;;29.30;17.50;;;11.30;99.90;;;;;;5112667;28;20533;-50
2023/08/29 05:29:12;;;;;;;31.57;17.13;;;11.40;99.90;;;;;;5112553;28;20267;-50
2023/08/29 05:31:38;;;;;;;33.13;17.80;;;11.40;99.90;;;;;;5112672;28;20976;-50
2023/08/29 05:34:04;;;;;;;28.10;18.13;;;11.50;99.90;;;;;;5112864;28;20695;-50
2023/08/29 05:36:29;;;;;;;28.33;17.83;;;11.60;99.90;;;;;;5112670;28;20206;-49
2023/08/29 05:38:56;;;;;;;26.73;15.20;;;11.70;99.90;;;;;;5112452;28;20638;-50
2023/08/29 05:41:21;;;;;;;29.03;17.40;;;11.70;99.90;;;;;;5112775;28;20207;-50
2023/08/29 05:43:47;;;;;;;34.67;19.13;;;11.70;99.90;;;;;;5112552;28;20417;-51
2023/08/29 05:46:12;;;;;;;28.13;17.97;;;11.80;99.90;;;;;;5112426;28;20175;-49
2023/08/29 05:48:38;;;;;;;29.07;16.73;;;11.90;99.90;;;;;;5112225;28;20200;-50
2023/08/29 05:51:04;;;;;;;25.57;16.77;;;12.00;99.90;;;;;;5111969;28;20277;-50
2023/08/29 05:53:29;;;;;;;26.53;16.60;;;12.00;99.90;;;;;;5112084;28;20179;-50
2023/08/29 05:55:55;;;;;;;27.13;15.83;;;12.10;99.90;;;;;;5112261;28;20237;-51
2023/08/29 05:58:25;;;;;;;22.23;16.50;;;12.20;99.90;;;;;;5112210;28;20555;-51
2023/08/29 06:00:51;;;;;;;25.27;15.37;;;12.30;99.90;;;;;;5112527;28;20219;-51
2023/08/29 06:03:17;;;;;;;24.87;15.30;;;12.30;99.90;;;;;;5113253;28;20444;-51
2023/08/29 06:05:42;;;;;;;20.97;15.87;;;12.40;99.90;;;;;;5116198;28;20487;-51
2023/08/29 06:08:08;;;;;;;21.40;14.97;;;12.50;99.90;;;;;;5116005;28;20194;-50
2023/08/29 06:10:34;;;;;;;17.40;14.00;;;12.50;99.90;;;;;;5115942;28;20175;-51
2023/08/29 06:12:59;;;;;;;20.57;15.13;;;12.60;99.90;;;;;;5115876;28;20469;-51
2023/08/29 06:15:25;;;;;;;19.13;14.67;;;12.70;99.90;;;;;;5115722;28;20248;-51
2023/08/29 06:17:51;;;;;;;23.50;14.50;;;12.80;99.90;;;;;;5116300;28;20180;-51
2023/08/29 06:20:17;;;;;;;20.33;14.10;;;12.80;99.90;;;;;;5115953;28;20185;-51
2023/08/29 06:22:42;;;;;;;15.67;12.33;;;12.90;99.90;;;;;;5115455;28;20250;-51
2023/08/29 06:25:09;;;;;;;15.83;12.83;;;13.00;99.90;;;;;;5115816;28;20518;-50
2023/08/29 06:27:36;;;;;;;19.30;13.93;;;13.00;99.90;;;;;;5115592;28;20191;-50
2023/08/29 06:30:02;;;;;;;21.17;13.60;;;13.10;99.90;;;;;;5115880;28;20408;-51
2023/08/29 06:32:29;;;;;;;18.17;13.40;;;13.20;99.90;;;;;;5115974;28;20491;-52
2023/08/29 06:34:55;;;;;;;19.30;13.03;;;13.20;99.90;;;;;;5115986;28;20416;-55
2023/08/29 06:37:21;;;;;;;19.80;13.77;;;13.30;99.90;;;;;;5116791;28;20417;-52
2023/08/29 06:39:47;;;;;;;20.20;12.93;;;13.30;99.90;;;;;;5117019;28;20669;-51
2023/08/29 06:42:12;;;;;;;17.10;11.50;;;13.40;99.90;;;;;;5116906;28;20465;-51
2023/08/29 06:44:38;;;;;;;29.13;13.30;;;13.50;99.90;;;;;;5117005;28;20210;-51
2023/08/29 06:47:04;;;;;;;14.70;11.10;;;13.60;99.90;;;;;;5116783;28;20510;-51
2023/08/29 06:49:30;;;;;;;16.30;11.00;;;13.70;99.90;;;;;;5116929;28;20195;-51
2023/08/29 06:51:56;;;;;;;17.10;12.33;;;13.80;99.90;;;;;;5115601;28;20422;-52
2023/08/29 06:54:21;;;;;;;14.27;11.37;;;14.00;99.90;;;;;;5115654;28;20533;-53
2023/08/29 06:56:49;;;;;;;16.40;12.03;;;14.10;99.90;;;;;;5115466;28;20177;-51
2023/08/29 06:59:14;;;;;;;12.87;10.80;;;14.30;99.90;;;;;;5115446;28;20252;-53
2023/08/29 07:01:40;;;;;;;12.70;10.23;;;14.50;99.90;;;;;;5115054;28;20466;-52
2023/08/29 07:04:07;;;;;;;12.13;10.17;;;14.70;99.90;;;;;;5115588;28;20265;-52
2023/08/29 07:06:32;;;;;;;13.20;10.77;;;14.80;99.90;;;;;;5115241;28;20199;-54
2023/08/29 07:08:58;;;;;;;11.43;10.23;;;15.00;19.80;;;;;;5115300;28;20412;-53
2023/08/29 07:11:23;;;;;;;12.33;9.80;;;15.20;1.00;;;;;;5115292;28;20182;-53
2023/08/29 07:13:49;;;;;;;13.37;9.70;;;15.30;1.00;;;;;;5114890;28;20260;-53
2023/08/29 07:16:15;;;;;;;12.40;9.50;;;15.40;1.00;;;;;;5114063;28;20181;-53
2023/08/29 07:18:40;;;;;;;13.60;10.13;;;15.50;1.00;;;;;;5114836;28;20183;-54
2023/08/29 07:21:06;;;;;;;14.23;7.90;;;15.60;99.90;;;;;;5114871;28;20183;-53
2023/08/29 07:23:33;;;;;;;11.37;8.67;;;15.80;99.90;;;;;;5114429;28;20300;-54
2023/08/29 07:25:59;;;;;;;10.60;7.93;;;15.90;52.50;;;;;;5114979;28;20417;-53
2023/08/29 07:28:24;;;;;;;10.30;7.17;;;16.00;10.50;;;;;;5114716;28;20953;-54
2023/08/29 07:30:53;;;;;;;10.20;7.50;;;16.10;1.00;;;;;;5114445;28;20234;-53
2023/08/29 07:33:19;;;;;;;9.50;7.63;;;16.20;1.00;;;;;;5114731;28;20187;-54
2023/08/29 07:35:47;;;;;;;8.93;7.07;;;16.30;1.00;;;;;;5114308;28;20873;-54
2023/08/29 07:38:13;;;;;;;11.30;8.50;;;16.40;99.90;;;;;;5114548;28;20429;-54
2023/08/29 07:40:39;;;;;;;9.83;7.60;;;16.40;1.00;;;;;;5096153;28;20418;-55
2023/08/29 07:43:09;;;;;;;9.67;6.43;;;16.50;99.90;;;;;;5114191;28;20450;-52
2023/08/29 07:45:35;;;;;;;8.83;6.33;;;16.50;99.90;;;;;;5114454;28;20197;-54
2023/08/29 07:48:01;;;;;;;8.10;6.20;;;16.60;99.90;;;;;;5114334;28;20414;-54
2023/08/29 07:50:28;;;;;;;7.93;5.60;;;16.60;99.90;;;;;;5113873;28;20426;-54
2023/08/29 07:52:53;;;;;;;8.57;5.93;;;16.60;99.90;;;;;;5114234;28;20508;-54
2023/08/29 07:55:20;;;;;;;9.83;5.40;;;16.70;99.90;;;;;;5114264;28;20452;-54
2023/08/29 07:57:46;;;;;;;8.23;5.67;;;16.70;99.90;;;;;;5114091;28;20446;-53
2023/08/29 08:00:12;;;;;;;5.40;5.00;;;16.70;96.50;;;;;;5113925;28;20501;-54
2023/08/29 08:02:38;;;;;;;5.83;4.40;;;16.70;1.00;;;;;;5114166;28;20949;-54
2023/08/29 08:05:13;;;;;;;7.47;4.47;;;16.70;1.00;;;;;;5113632;28;20422;-53
2023/08/29 08:07:39;;;;;;;8.37;4.93;;;16.60;1.00;;;;;;5113587;28;20432;-54
2023/08/29 08:10:06;;;;;;;5.60;4.83;;;16.70;1.00;;;;;;5113582;28;20932;-53
2023/08/29 08:12:33;;;;;;;4.60;4.20;;;16.70;99.90;;;;;;5113561;28;20419;-53
2023/08/29 08:14:59;;;;;;;8.63;5.50;;;16.80;1.00;;;;;;5113771;28;20403;-54
2023/08/29 08:17:25;;;;;;;7.13;5.30;;;16.80;1.00;;;;;;5113800;28;20924;-53
2023/08/29 08:19:50;;;;;;;5.70;5.20;;;16.80;1.00;;;;;;5113688;28;20413;-53
2023/08/29 08:22:16;;;;;;;6.90;5.27;;;16.90;1.00;;;;;;5113076;28;20292;-54
2023/08/29 08:24:42;;;;;;;6.03;5.00;;;17.00;1.00;;;;;;5113465;28;20176;-53
2023/08/29 08:27:07;;;;;;;8.40;6.10;;;17.00;99.90;;;;;;5112386;28;20187;-53
2023/08/29 08:29:33;;;;;;;7.43;6.27;;;17.10;99.90;;;;;;5113763;28;20188;-54
2023/08/29 08:31:59;;;;;;;11.67;5.50;;;17.00;99.90;;;;;;5113543;28;20181;-55
2023/08/29 08:34:25;;;;;;;8.57;5.73;;;17.00;99.90;;;;;;5114091;28;20183;-50
2023/08/29 08:36:50;;;;;;;6.97;5.17;;;17.00;99.90;;;;;;5113633;28;20224;-50
2023/08/29 08:39:17;;;;;;;7.37;5.30;;;17.00;99.90;;;;;;5113175;28;20192;-49
2023/08/29 08:41:42;;;;;;;7.80;5.07;;;17.10;99.90;;;;;;5113169;28;20457;-50
2023/08/29 08:44:15;;;;;;;8.70;6.10;;;17.20;99.90;;;;;;5113174;28;20644;-51
2023/08/29 08:46:43;;;;;;;10.50;5.33;;;17.20;99.90;;;;;;5113493;28;20181;-51
2023/08/29 08:49:10;;;;;;;6.33;5.43;;;17.30;99.90;;;;;;5113222;28;20415;-50
2023/08/29 08:51:37;;;;;;;5.13;4.63;;;17.30;99.90;;;;;;5113273;28;20422;-51
2023/08/29 08:54:05;;;;;;;10.63;4.60;;;17.40;99.90;;;;;;5113092;28;20754;-51
2023/08/29 08:56:31;;;;;;;7.73;5.70;;;17.50;99.90;;;;;;5113175;28;20521;-51
2023/08/29 08:58:57;;;;;;;11.03;5.83;;;17.40;99.90;;;;;;5113530;28;20489;-50
2023/08/29 09:01:23;;;;;;;5.73;4.77;;;17.50;99.90;;;;;;5113379;28;20489;-51
2023/08/29 09:03:49;;;;;;;6.30;5.27;;;17.50;99.90;;;;;;5113089;28;20415;-52
2023/08/29 09:06:15;;;;;;;9.33;5.50;;;17.60;99.90;;;;;;5112891;28;20807;-50
2023/08/29 09:08:41;;;;;;;9.27;6.00;;;17.80;99.90;;;;;;5112984;28;20415;-52
2023/08/29 09:11:06;;;;;;;7.60;5.90;;;17.90;99.90;;;;;;5113155;28;20181;-51
2023/08/29 09:13:32;;;;;;;11.27;6.10;;;18.00;99.00;;;;;;5112972;28;20176;-51
2023/08/29 09:16:01;;;;;;;7.33;5.30;;;18.00;44.60;;;;;;5113080;28;20182;-50
2023/08/29 09:18:31;;;;;;;6.97;5.37;;;18.20;70.10;;;;;;5113214;28;20177;-50
2023/08/29 09:21:01;;;;;;;6.70;5.40;;;18.30;99.90;;;;;;5112964;28;20415;-51
2023/08/29 09:23:29;;;;;;;7.70;5.53;;;18.40;64.50;;;;;;5113210;28;20468;-51
2023/08/29 09:25:56;;;;;;;5.87;5.10;;;18.50;27.80;;;;;;5112883;28;20418;-52
2023/08/29 09:28:22;;;;;;;6.50;4.60;;;18.60;10.40;;;;;;5112572;28;20506;-50
2023/08/29 09:30:48;;;;;;;10.63;5.10;;;18.80;36.10;;;;;;5094120;28;20430;-50
2023/08/29 09:33:20;;;;;;;6.27;4.53;;;19.00;11.30;;;;;;5112195;28;20412;-52
2023/08/29 09:35:46;;;;;;;6.30;4.43;;;19.10;1.00;;;;;;5112510;28;20417;-51
2023/08/29 09:38:12;;;;;;;6.93;5.00;;;19.20;1.00;;;;;;5113425;28;20471;-51
2023/08/29 09:40:48;;;;;;;4.10;3.70;;;19.20;18.10;;;;;;5116666;28;20429;-51
2023/08/29 09:43:15;;;;;;;7.37;3.27;;;19.40;1.00;;;;;;5116918;28;20460;-50
2023/08/29 09:45:41;;;;;;;8.30;3.33;;;19.60;1.00;;;;;;5116733;28;20503;-50
2023/08/29 09:48:08;;;;;;;5.03;2.70;;;19.80;1.00;;;;;;5116333;28;20423;-51
2023/08/29 09:50:35;;;;;;;6.37;2.80;;;20.10;1.00;;;;;;5116161;28;20507;-51
2023/08/29 09:53:02;;;;;;;2.57;2.00;;;20.30;1.00;;;;;;5116403;28;20580;-51
2023/08/29 09:55:33;;;;;;;3.40;2.57;;;20.50;1.00;;;;;;5116181;28;20414;-51
2023/08/29 09:58:01;;;;;;;4.83;2.30;;;20.80;1.00;;;;;;5116248;28;20492;-50
2023/08/29 10:00:28;;;;;;;3.93;2.10;;;20.80;1.00;;;;;;5116779;28;20758;-51
2023/08/29 10:02:58;;;;;;;3.00;1.80;;;20.90;1.00;;;;;;5116138;28;20960;-50
2023/08/29 10:05:32;;;;;;;3.90;1.80;;;21.00;1.00;;;;;;5116139;28;20596;-49
2023/08/29 10:08:02;;;;;;;2.40;1.50;;;21.20;1.00;;;;;;5116852;28;20440;-51
2023/08/29 10:10:28;;;;;;;3.43;1.70;;;21.40;1.00;;;;;;5116517;28;20905;-51
2023/08/29 10:12:55;;;;;;;2.33;1.97;;;21.50;1.00;;;;;;5116158;28;20474;-51
2023/08/29 10:15:21;;;;;;;3.33;1.90;;;21.70;1.00;;;;;;5116244;28;20238;-51
2023/08/29 10:17:48;;;;;;;2.37;2.13;;;21.60;1.00;;;;;;5115951;28;20410;-51
2023/08/29 10:20:17;;;;;;;3.73;1.87;;;21.70;1.00;;;;;;5116082;28;20416;-51
2023/08/29 10:22:45;;;;;;;3.40;1.80;;;21.80;1.00;;;;;;5115477;28;20534;-51
2023/08/29 10:25:13;;;;;;;2.70;1.90;;;22.10;1.00;;;;;;5115975;28;20422;-51
2023/08/29 10:27:40;;;;;;;4.30;1.87;;;22.30;1.00;;;;;;5116152;28;20483;-52
2023/08/29 10:30:07;;;;;;;2.77;1.97;;;22.60;1.00;;;;;;5116140;28;20452;-52
2023/08/29 10:32:34;;;;;;;2.90;2.33;;;22.90;1.00;;;;;;5115582;28;21040;-52
2023/08/29 10:35:00;;;;;;;7.43;2.00;;;23.40;1.00;;;;;;5115468;28;20905;-54
2023/08/29 10:37:28;;;;;;;2.80;1.70;;;23.80;1.00;;;;;;5114743;28;20517;-53
2023/08/29 10:40:11;;;;;;;1.30;1.20;;;24.00;1.00;;;;;;5114725;28;20212;-52
2023/08/29 10:42:53;;;;;;;2.40;1.47;;;24.30;1.00;;;;;;5115841;28;20454;-51
2023/08/29 10:45:42;;;;;;;1.93;1.73;;;24.10;1.00;;;;;;5115420;28;20497;-50
2023/08/29 10:48:07;;;;;;;2.70;1.63;;;23.40;1.00;;;;;;5076060;28;21162;-50
2023/08/29 10:50:36;;;;;;;6.73;1.60;;;23.10;1.00;;;;;;5114482;28;20417;-52
2023/08/29 10:53:02;;;;;;;2.63;1.57;;;23.00;1.00;;;;;;5115613;28;20173;-50
2023/08/29 10:55:28;;;;;;;2.27;1.70;;;22.80;1.00;;;;;;5115517;28;20918;-52
2023/08/29 10:58:01;;;;;;;2.73;1.50;;;22.50;1.00;;;;;;5115526;28;20422;-49
2023/08/29 11:00:35;;;;;;;1.67;1.57;;;22.30;1.00;;;;;;5115682;28;20474;-51
2023/08/29 11:03:01;;;;;;;3.97;1.50;;;22.10;1.00;;;;;;5115432;28;20615;-55
2023/08/29 11:05:27;;;;;;;3.60;1.70;;;22.30;1.00;;;;;;5115624;28;20414;-51
2023/08/29 11:08:13;;;;;;;1.60;1.40;;;23.30;1.00;;;;;;5096691;28;20491;-52
2023/08/29 11:10:39;;;;;;;1.90;1.37;;;24.20;1.00;;;;;;5115151;28;20509;-50
2023/08/29 11:13:10;;;;;;;1.60;1.50;;;25.30;1.00;;;;;;5114818;28;20505;-50
2023/08/29 11:15:51;;;;;;;2.50;1.40;;;26.00;1.00;;;;;;5115328;28;20615;-49
2023/08/29 11:18:31;;;;;;;2.50;1.47;;;26.60;1.00;;;;;;5114802;28;20419;-50
2023/08/29 11:20:57;;;;;;;2.20;1.53;;;26.70;1.00;;;;;;5115235;28;20406;-49
2023/08/29 11:23:23;;;;;;;3.07;1.57;;;26.60;1.00;;;;;;5114551;28;20478;-49
2023/08/29 11:25:52;;;;;;;1.73;1.40;;;26.60;1.00;;;;;;5114968;28;20499;-50
2023/08/29 11:28:18;;;;;;;2.07;1.60;;;26.80;1.00;;;;;;5114932;28;20181;-49
2023/08/29 11:30:45;;;;;;;1.83;1.30;;;27.30;1.00;;;;;;5114924;28;20419;-50
2023/08/29 11:33:14;;;;;;;1.33;1.20;;;27.50;1.00;;;;;;5114588;28;20507;-50
2023/08/29 11:35:41;;;;;;;1.60;1.27;;;27.30;1.00;;;;;;5114589;28;20561;-50
2023/08/29 11:38:06;;;;;;;1.53;1.20;;;27.20;1.00;;;;;;5115147;28;20422;-50
2023/08/29 11:40:36;;;;;;;2.23;1.40;;;27.80;1.00;;;;;;5114275;28;20909;-50
2023/08/29 11:43:02;;;;;;;5.03;1.50;;;27.90;1.00;;;;;;5114249;28;20642;-50
2023/08/29 11:45:31;;;;;;;6.30;1.50;;;27.40;1.00;;;;;;5114699;28;20544;-49
2023/08/29 11:47:57;;;;;;;2.30;1.50;;;27.10;99.90;;;;;;5114734;28;20882;-50
2023/08/29 11:50:22;;;;;;;5.00;1.70;;;27.30;1.00;;;;;;5114202;28;20499;-49
2023/08/29 11:52:48;;;;;;;2.90;1.40;;;27.10;1.00;;;;;;5114143;28;20523;-49
2023/08/29 11:55:17;;;;;;;2.13;1.20;;;26.70;99.90;;;;;;5114170;28;20208;-50
2023/08/29 11:57:44;;;;;;;1.57;1.40;;;26.50;1.00;;;;;;5114234;28;20476;-50
2023/08/29 12:00:11;;;;;;;2.70;1.70;;;26.30;1.00;;;;;;5114874;28;20419;-50
2023/08/29 12:02:36;;;;;;;1.20;1.10;;;26.40;1.00;;;;;;5113870;28;20484;-50
2023/08/29 12:05:08;;;;;;;3.13;1.30;;;26.50;1.00;;;;;;5113957;28;20906;-51
2023/08/29 12:07:34;;;;;;;1.77;1.30;;;26.90;1.00;;;;;;5113994;28;20520;-51
2023/08/29 12:10:16;;;;;;;1.33;1.23;;;27.20;99.90;;;;;;5113845;28;20422;-51
2023/08/29 12:12:42;;;;;;;1.80;1.40;;;27.40;99.90;;;;;;5113866;28;20394;-52
2023/08/29 12:15:14;;;;;;;3.87;1.60;;;27.40;99.90;;;;;;5113549;28;20414;-51
2023/08/29 12:17:40;;;;;;;1.93;1.37;;;27.00;99.90;;;;;;5113902;28;20181;-52
2023/08/29 12:20:12;;;;;;;2.90;1.50;;;26.40;99.90;;;;;;5113748;28;20449;-51
2023/08/29 12:22:46;;;;;;;2.77;1.50;;;25.70;99.90;;;;;;5113199;28;20493;-51
2023/08/29 12:25:12;;;;;;;2.80;1.33;;;25.40;99.90;;;;;;5113511;28;20477;-51
2023/08/29 12:27:37;;;;;;;2.00;1.20;;;25.00;99.90;;;;;;5113567;28;20505;-50
2023/08/29 12:30:04;;;;;;;2.97;1.30;;;24.80;99.90;;;;;;5112660;28;20676;-50
2023/08/29 12:32:30;;;;;;;3.20;1.20;;;24.50;99.90;;;;;;5112671;28;20191;-50
2023/08/29 12:34:56;;;;;;;1.73;1.30;;;24.60;99.90;;;;;;5113413;28;20414;-51
2023/08/29 12:37:22;;;;;;;4.57;1.30;;;24.50;1.00;;;;;;5113448;28;20181;-50
2023/08/29 12:39:48;;;;;;;1.10;1.00;;;24.20;99.90;;;;;;5113575;28;20411;-51
2023/08/29 12:42:15;;;;;;;4.93;1.60;;;23.90;1.00;;;;;;5113665;28;20494;-52